createdAt,value
2023-02-11T00:02:39.723Z,22.52
2023-02-11T00:07:39.737Z,20.9
2023-02-11T00:12:39.752Z,20.81
2023-02-11T00:17:39.725Z,21.42
2023-02-11T00:22:39.732Z,20.77
2023-02-11T00:27:39.714Z,19.81
2023-02-11T00:32:39.765Z,19.88
2023-02-11T00:37:39.720Z,21.03
2023-02-11T00:42:39.717Z,20.52
2023-02-11T00:47:39.759Z,19.56
2023-02-11T00:52:39.727Z,18.16
2023-02-11T00:57:39.725Z,18.71
2023-02-11T01:02:39.775Z,19.4
2023-02-11T01:07:39.719Z,19.53
2023-02-11T01:12:39.764Z,19.27
2023-02-11T01:17:39.756Z,18.66
2023-02-11T01:22:39.785Z,20.56
2023-02-11T01:27:39.774Z,20.36
2023-02-11T01:32:39.746Z,18.59
2023-02-11T01:37:39.757Z,20.22
2023-02-11T01:42:39.777Z,20.99
2023-02-11T01:47:39.789Z,19.57
2023-02-11T01:52:39.748Z,19.75
2023-02-11T01:57:39.753Z,20.4
2023-02-11T02:02:39.781Z,21.63
2023-02-11T02:07:39.764Z,22.4
2023-02-11T02:12:39.756Z,21.52
2023-02-11T02:17:39.783Z,22.88
2023-02-11T02:22:39.758Z,24.61
2023-02-11T02:27:39.789Z,24.87
2023-02-11T02:32:39.803Z,24.65
2023-02-11T02:37:39.786Z,23.9
2023-02-11T02:42:39.786Z,23.58
2023-02-11T02:47:39.763Z,25.08
2023-02-11T02:52:39.788Z,24.54
2023-02-11T02:57:39.798Z,25.12
2023-02-11T03:02:39.817Z,25.25
2023-02-11T03:07:39.770Z,25.74
2023-02-11T03:12:39.771Z,24.6
2023-02-11T03:17:39.824Z,25.52
2023-02-11T03:22:39.785Z,24.39
2023-02-11T03:27:39.819Z,23.25
2023-02-11T03:32:39.799Z,24.52
2023-02-11T03:37:39.787Z,24.33
2023-02-11T03:42:39.806Z,24.64
2023-02-11T03:47:39.805Z,24.71
2023-02-11T03:52:39.835Z,24.67
2023-02-11T03:57:39.796Z,24.01
2023-02-11T04:02:39.795Z,23.71
2023-02-11T04:07:39.842Z,23.11
2023-02-11T04:12:39.779Z,25.81
2023-02-11T04:17:39.797Z,24.62
2023-02-11T04:22:39.805Z,24.93
2023-02-11T04:27:39.799Z,25.03
2023-02-11T04:32:39.824Z,23.62
2023-02-11T04:37:39.845Z,22.68
2023-02-11T04:42:39.792Z,23.25
2023-02-11T04:47:39.824Z,23.34
2023-02-11T04:52:39.806Z,22.85
2023-02-11T04:57:39.798Z,25.53
2023-02-11T05:02:39.851Z,24.98
2023-02-11T05:07:39.864Z,25.06
2023-02-11T05:15:28.031Z,25.11
2023-02-11T05:20:28.001Z,25.29
2023-02-11T05:25:27.992Z,26.2
2023-02-11T05:30:28.021Z,26.6
2023-02-11T05:35:28.036Z,25.43
2023-02-11T05:40:28.000Z,26.84
2023-02-11T05:45:27.996Z,28.31
2023-02-11T05:50:28.044Z,27.5
2023-02-11T05:55:28.003Z,28.26
2023-02-11T06:00:27.994Z,29.43
2023-02-11T06:05:28.036Z,27.59
2023-02-11T06:10:28.039Z,25.25
2023-02-11T06:15:28.040Z,25.17
2023-02-11T06:20:27.995Z,24.94
2023-02-11T06:25:28.014Z,23.55
2023-02-11T06:30:28.017Z,23.63
2023-02-11T06:35:28.004Z,25.65
2023-02-11T06:40:28.019Z,24.49
2023-02-11T06:45:28.049Z,23.7
2023-02-11T06:50:28.027Z,22.9
2023-02-11T06:55:28.050Z,22.67
2023-02-11T07:00:28.019Z,22.8
2023-02-11T07:05:28.070Z,25.85
2023-02-11T07:10:28.015Z,25.6
2023-02-11T07:15:28.062Z,25.77
2023-02-11T07:20:28.035Z,26.96
2023-02-11T07:25:28.054Z,26.12
2023-02-11T07:30:28.062Z,23.58
2023-02-11T07:35:28.060Z,24.25
2023-02-11T07:40:28.118Z,28.57
2023-02-11T07:45:28.071Z,27.86
2023-02-11T07:50:28.180Z,27.02
2023-02-11T07:55:28.065Z,26.32
2023-02-11T08:00:28.062Z,26.83
2023-02-11T08:05:28.043Z,27.64
2023-02-11T08:10:28.054Z,28.72
2023-02-11T08:15:28.079Z,40.23
2023-02-11T08:20:28.048Z,42.4
2023-02-11T08:25:28.044Z,38.45
2023-02-11T08:30:28.230Z,46.67
2023-02-11T08:35:28.068Z,38.22
2023-02-11T08:40:28.063Z,28.28
2023-02-11T08:45:28.046Z,25.14
2023-02-11T08:50:28.040Z,26.84
2023-02-11T08:55:28.100Z,26.86
2023-02-11T09:00:28.092Z,28.22
2023-02-11T09:05:28.082Z,27.28
2023-02-11T09:10:28.072Z,26.7
2023-02-11T09:15:28.091Z,26.33
2023-02-11T09:20:28.054Z,24.99
2023-02-11T09:25:28.056Z,25.83
2023-02-11T09:30:28.175Z,24.82
2023-02-11T09:35:28.095Z,24.52
2023-02-11T09:40:28.060Z,24.65
2023-02-11T09:45:28.122Z,25.4
2023-02-11T09:50:28.075Z,27.01
2023-02-11T09:55:28.106Z,27.93
2023-02-11T10:00:28.062Z,26.18
2023-02-11T10:05:28.108Z,25.71
2023-02-11T10:10:28.088Z,25.9
2023-02-11T10:15:28.139Z,25.76
2023-02-11T10:20:28.115Z,24.25
2023-02-11T10:25:28.082Z,23.21
2023-02-11T10:30:28.145Z,28.18
2023-02-11T10:35:28.119Z,29.43
2023-02-11T10:40:28.116Z,24.66
2023-02-11T10:45:28.124Z,26.56
2023-02-11T10:50:28.134Z,25.9
2023-02-11T10:55:28.120Z,29.77
2023-02-11T11:00:28.147Z,23.51
2023-02-11T11:05:28.135Z,26.19
2023-02-11T11:10:28.132Z,25.6
2023-02-11T11:15:28.147Z,23.48
2023-02-11T11:20:28.112Z,24.2
2023-02-11T11:25:28.138Z,23.76
2023-02-11T11:30:28.204Z,24.24
2023-02-11T11:35:28.125Z,23.4
2023-02-11T11:40:28.096Z,24.73
2023-02-11T11:45:28.176Z,23.23
2023-02-11T11:50:28.159Z,30.76
2023-02-11T11:55:28.153Z,26.15
2023-02-11T12:00:28.139Z,29.25
2023-02-11T12:05:28.133Z,29.03
2023-02-11T12:10:28.155Z,30.48
2023-02-11T12:15:28.146Z,28.72
2023-02-11T12:20:28.121Z,26.83
2023-02-11T12:25:28.117Z,26.66
2023-02-11T12:30:28.252Z,25.7
2023-02-11T12:35:28.159Z,26.99
2023-02-11T12:40:28.132Z,27.44
2023-02-11T12:45:28.181Z,25.8
2023-02-11T12:50:28.175Z,28.24
2023-02-11T12:55:28.142Z,26.29
2023-02-11T13:00:28.145Z,27.21
2023-02-11T13:05:28.185Z,28.91
2023-02-11T13:10:28.149Z,29.78
2023-02-11T13:15:28.156Z,29.04
2023-02-11T13:20:28.153Z,27.64
2023-02-11T13:25:28.154Z,28.38
2023-02-11T13:30:28.217Z,29.22
2023-02-11T13:35:28.218Z,32.55
2023-02-11T13:40:28.164Z,43.96
2023-02-11T13:45:28.162Z,52.08
2023-02-11T13:50:28.177Z,61.49
2023-02-11T13:55:28.180Z,43.82
2023-02-11T14:00:28.144Z,30
2023-02-11T14:05:28.213Z,30.32
2023-02-11T14:10:28.185Z,31.95
2023-02-11T14:15:28.198Z,30.01
2023-02-11T14:20:28.210Z,30.82
2023-02-11T14:25:28.175Z,31.76
2023-02-11T14:30:28.252Z,31.71
2023-02-11T14:35:28.227Z,31.71
2023-02-11T14:40:28.200Z,32.38
2023-02-11T14:45:28.240Z,33.46
2023-02-11T14:50:28.246Z,32.15
2023-02-11T14:55:28.186Z,34.77
2023-02-11T15:00:28.268Z,31.31
2023-02-11T15:05:28.243Z,33.74
2023-02-11T15:10:28.217Z,33.45
2023-02-11T15:15:28.241Z,32.64
2023-02-11T15:20:28.183Z,38.39
2023-02-11T15:25:28.214Z,39.38
2023-02-11T15:30:28.205Z,34.29
2023-02-11T15:35:28.246Z,34.19
2023-02-11T15:40:28.231Z,34.09
2023-02-11T15:45:28.221Z,37.28
2023-02-11T15:50:28.206Z,36.81
2023-02-11T15:55:28.213Z,37.26
2023-02-11T16:00:28.228Z,41.06
2023-02-11T16:05:28.221Z,51.25
2023-02-11T16:10:28.213Z,40.66
2023-02-11T16:15:28.213Z,36.77
2023-02-11T16:20:28.236Z,34.26
2023-02-11T16:25:28.212Z,36.27
2023-02-11T16:30:28.260Z,38.38
2023-02-11T16:35:28.249Z,37.1
2023-02-11T16:40:28.234Z,39.15
2023-02-11T16:45:28.242Z,35.07
2023-02-11T16:50:28.239Z,35.81
2023-02-11T16:55:28.264Z,35.66
2023-02-11T17:00:28.274Z,35.64
2023-02-11T17:05:28.250Z,35.21
2023-02-11T17:10:28.229Z,36.51
2023-02-11T17:15:28.219Z,37.34
2023-02-11T17:20:28.245Z,36.12
2023-02-11T17:25:28.253Z,34.6
2023-02-11T17:30:28.262Z,30.98
2023-02-11T17:35:28.264Z,31.64
2023-02-11T17:40:28.248Z,33.91
2023-02-11T17:45:28.296Z,31.22
2023-02-11T17:50:29.472Z,27.83
2023-02-11T17:55:28.239Z,28.54
2023-02-11T18:00:28.270Z,29.62
2023-02-11T18:05:28.240Z,38.34
2023-02-11T18:10:28.256Z,31.18
2023-02-11T18:15:28.295Z,28.57
2023-02-11T18:20:28.238Z,32.14
2023-02-11T18:25:28.284Z,31.97
2023-02-11T18:30:28.254Z,27.99
2023-02-11T18:35:28.245Z,31.07
2023-02-11T18:40:28.295Z,31.44
2023-02-11T18:45:28.373Z,31.9
2023-02-11T18:50:28.293Z,31.18
2023-02-11T18:55:28.299Z,31.91
2023-02-11T19:00:28.298Z,32.7
2023-02-11T19:05:28.308Z,32.73
2023-02-11T19:10:28.304Z,32.7
2023-02-11T19:15:28.270Z,32.03
2023-02-11T19:20:28.261Z,32.45
2023-02-11T19:25:28.306Z,33.59
2023-02-11T19:30:28.315Z,32.96
2023-02-11T19:35:28.314Z,32.37
2023-02-11T19:40:28.300Z,31.98
2023-02-11T19:45:28.277Z,31.56
2023-02-11T19:50:28.316Z,29.96
2023-02-11T19:55:28.313Z,29.24
2023-02-11T20:00:28.290Z,29.96
2023-02-11T20:05:28.292Z,29.69
2023-02-11T20:10:28.292Z,31.45
2023-02-11T20:15:28.346Z,31.43
2023-02-11T20:20:28.288Z,30.27
2023-02-11T20:25:28.321Z,31
2023-02-11T20:30:28.351Z,31.21
2023-02-11T20:35:28.295Z,29.12
2023-02-11T20:40:28.324Z,30.2
2023-02-11T20:45:28.286Z,27.97
2023-02-11T20:50:28.284Z,27.36
2023-02-11T20:55:28.341Z,26.75
2023-02-11T21:00:28.292Z,25.5
2023-02-11T21:05:28.322Z,24.56
2023-02-11T21:10:28.348Z,23.07
2023-02-11T21:15:28.326Z,23.54
2023-02-11T21:20:28.333Z,24.33
2023-02-11T21:25:28.313Z,23.43
2023-02-11T21:30:28.353Z,23.79
2023-02-11T21:35:28.358Z,22.59
2023-02-11T21:40:28.310Z,21.78
2023-02-11T21:45:28.337Z,21.56
2023-02-11T21:50:28.336Z,20.76
2023-02-11T21:55:28.330Z,20.78
2023-02-11T22:00:28.393Z,21.62
2023-02-11T22:05:28.325Z,20.05
2023-02-11T22:10:28.322Z,19.48
2023-02-11T22:15:28.364Z,19.39
2023-02-11T22:20:28.350Z,18.94
2023-02-11T22:25:28.373Z,18.88
2023-02-11T22:30:28.362Z,18.92
2023-02-11T22:35:28.401Z,18.62
2023-02-11T22:40:28.370Z,18.8
2023-02-11T22:45:28.412Z,18.8
2023-02-11T22:50:28.360Z,18.78
2023-02-11T22:55:28.379Z,19.15
2023-02-11T23:00:28.378Z,18.43
2023-02-11T23:05:28.357Z,19.12
2023-02-11T23:10:28.349Z,18.85
2023-02-11T23:15:28.372Z,19.22
2023-02-11T23:20:28.349Z,18.15
2023-02-11T23:25:28.354Z,17.84
2023-02-11T23:30:28.359Z,17.86
2023-02-11T23:35:28.360Z,17.9
2023-02-11T23:40:28.363Z,17.98
2023-02-11T23:45:28.384Z,18.39
2023-02-11T23:50:28.357Z,17.22
2023-02-11T23:55:28.400Z,17.22
